Time;durP1;ratioP1;P1;durP2;ratioP2;P2;SDS_P1;SDS_P2;PMS_P1;PMS_P2;Temp;Humidity;BMP_temperature;BMP_pressure;BME280_temperature;BME280_humidity;BME280_pressure;Samples;Min_cycle;Max_cycle;Signal;HPM_P1;HPM_P2
2023/08/16 00:00:14;;;;;;;11.98;5.70;;;;;;;;;;5051304;28;20143;-71
2023/08/16 00:02:40;;;;;;;6.82;5.57;;;;;;;;;;5049841;28;20071;-71
2023/08/16 00:05:06;;;;;;;6.20;4.65;;;;;;;;;;5046238;28;20449;-71
2023/08/16 00:07:34;;;;;;;9.20;5.72;;;;;;;;;;5032297;28;20059;-71
2023/08/16 00:10:00;;;;;;;5.90;5.07;;;;;;;;;;5049082;28;20068;-71
2023/08/16 00:12:25;;;;;;;9.13;5.40;;;;;;;;;;5049983;28;20087;-71
2023/08/16 00:14:50;;;;;;;7.45;5.43;;;;;;;;;;5032490;28;21300;-71
2023/08/16 00:17:16;;;;;;;5.63;5.00;;;;;;;;;;5052346;28;20141;-71
2023/08/16 00:19:42;;;;;;;6.80;4.68;;;;;;;;;;5051674;28;20051;-71
2023/08/16 00:22:08;;;;;;;5.47;4.47;;;;;;;;;;5048586;28;20040;-71
2023/08/16 00:24:33;;;;;;;4.75;4.22;;;;;;;;;;5046483;28;20060;-71
2023/08/16 00:26:59;;;;;;;6.47;4.93;;;;;;;;;;5051822;28;20131;-71
2023/08/16 00:29:24;;;;;;;4.95;4.30;;;;;;;;;;5036632;28;20076;-71
2023/08/16 00:31:51;;;;;;;5.40;4.07;;;;;;;;;;5034080;28;20044;-71
2023/08/16 00:34:17;;;;;;;4.20;3.80;;;;;;;;;;5049191;28;20532;-71
2023/08/16 00:36:42;;;;;;;4.15;3.75;;;;;;;;;;5052975;28;20167;-70
2023/08/16 00:39:08;;;;;;;5.38;4.00;;;;;;;;;;5032830;28;20116;-71
2023/08/16 00:41:33;;;;;;;4.60;4.20;;;;;;;;;;5036072;28;20064;-71
2023/08/16 00:43:58;;;;;;;4.88;4.38;;;;;;;;;;5048339;28;20119;-71
2023/08/16 00:46:24;;;;;;;4.57;4.18;;;;;;;;;;5047650;28;20091;-71
2023/08/16 00:48:50;;;;;;;6.05;4.68;;;;;;;;;;5032050;28;20133;-71
2023/08/16 00:51:15;;;;;;;8.40;4.68;;;;;;;;;;5049903;28;20044;-71
2023/08/16 00:53:42;;;;;;;5.75;4.75;;;;;;;;;;5034554;28;20052;-71
2023/08/16 00:56:12;;;;;;;7.45;4.90;;;;;;;;;;5029752;28;20041;-71
2023/08/16 00:58:38;;;;;;;9.02;5.35;;;;;;;;;;5032896;28;20041;-71
2023/08/16 01:01:04;;;;;;;5.63;4.50;;;;;;;;;;5021784;28;20386;-71
2023/08/16 01:03:29;;;;;;;6.20;4.90;;;;;;;;;;5004830;28;20047;-71
2023/08/16 01:05:55;;;;;;;6.93;5.03;;;;;;;;;;5042282;28;20048;-70
2023/08/16 01:08:20;;;;;;;8.57;5.13;;;;;;;;;;5027732;28;20049;-69
2023/08/16 01:10:58;;;;;;;10.02;4.70;;;;;;;;;;5029433;28;20059;-69
2023/08/16 01:13:51;;;;;;;10.65;5.70;;;;;;;;;;5028981;28;20102;-69
2023/08/16 01:16:20;;;;;;;7.05;5.75;;;;;;;;;;5044070;28;20049;-69
2023/08/16 01:18:46;;;;;;;7.95;5.68;;;;;;;;;;5038789;28;20059;-69
2023/08/16 01:21:15;;;;;;;6.13;5.00;;;;;;;;;;5047244;28;20056;-69
2023/08/16 01:23:57;;;;;;;9.68;4.85;;;;;;;;;;5035088;28;20060;-70
2023/08/16 01:26:27;;;;;;;9.15;5.07;;;;;;;;;;5036756;28;20095;-70
2023/08/16 01:28:54;;;;;;;6.25;4.95;;;;;;;;;;5030436;28;20064;-69
2023/08/16 01:31:20;;;;;;;8.35;4.97;;;;;;;;;;5024192;28;20593;-69
2023/08/16 01:33:47;;;;;;;8.00;5.28;;;;;;;;;;5026139;28;20091;-69
2023/08/16 01:36:12;;;;;;;19.58;5.90;;;;;;;;;;5032150;28;20076;-69
2023/08/16 01:38:39;;;;;;;11.02;5.93;;;;;;;;;;5029763;28;20036;-69
2023/08/16 01:41:15;;;;;;;7.22;5.75;;;;;;;;;;5044621;28;20072;-69
2023/08/16 01:43:44;;;;;;;14.20;6.68;;;;;;;;;;5041426;28;20040;-69
2023/08/16 01:46:11;;;;;;;14.30;7.05;;;;;;;;;;5047654;28;20571;-69
2023/08/16 01:48:38;;;;;;;9.02;5.90;;;;;;;;;;5049416;28;20886;-69
2023/08/16 01:51:06;;;;;;;11.23;6.40;;;;;;;;;;5034476;28;20037;-69
2023/08/16 01:53:34;;;;;;;6.63;5.93;;;;;;;;;;5027962;28;20074;-69
2023/08/16 01:56:00;;;;;;;7.03;6.10;;;;;;;;;;5030044;28;20569;-69
2023/08/16 01:58:25;;;;;;;7.90;6.10;;;;;;;;;;5022740;28;20050;-69
2023/08/16 02:00:51;;;;;;;9.18;6.15;;;;;;;;;;5032145;28;20072;-69
2023/08/16 02:03:17;;;;;;;8.65;5.85;;;;;;;;;;5032926;28;20102;-69
2023/08/16 02:05:42;;;;;;;6.15;5.55;;;;;;;;;;5032271;28;20151;-69
2023/08/16 02:08:10;;;;;;;11.45;6.68;;;;;;;;;;5031363;28;20139;-69
2023/08/16 02:10:39;;;;;;;9.90;7.03;;;;;;;;;;5029342;28;20041;-70
2023/08/16 02:13:05;;;;;;;7.85;6.75;;;;;;;;;;5027915;28;20415;-69
2023/08/16 02:15:30;;;;;;;8.68;6.25;;;;;;;;;;5031742;28;20921;-69
2023/08/16 02:17:56;;;;;;;8.10;6.57;;;;;;;;;;5030133;28;20050;-69
2023/08/16 02:20:21;;;;;;;6.40;5.80;;;;;;;;;;5017595;28;20144;-69
2023/08/16 02:22:47;;;;;;;8.25;6.40;;;;;;;;;;5031840;28;20049;-70
2023/08/16 02:25:12;;;;;;;10.63;5.80;;;;;;;;;;5033175;28;20098;-70
2023/08/16 02:27:39;;;;;;;9.95;6.82;;;;;;;;;;5003814;28;20516;-69
2023/08/16 02:30:05;;;;;;;7.78;6.38;;;;;;;;;;5002008;28;20048;-69
2023/08/16 02:32:32;;;;;;;6.80;6.03;;;;;;;;;;5051677;28;20051;-69
2023/08/16 02:34:57;;;;;;;7.63;6.25;;;;;;;;;;5049064;28;20152;-69
2023/08/16 02:37:23;;;;;;;8.27;6.63;;;;;;;;;;5035081;28;20424;-69
2023/08/16 02:39:48;;;;;;;7.65;6.55;;;;;;;;;;5051035;28;20062;-69
2023/08/16 02:42:14;;;;;;;9.05;6.75;;;;;;;;;;5030745;28;20048;-70
2023/08/16 02:44:41;;;;;;;50.95;7.63;;;;;;;;;;5027688;28;20041;-70
2023/08/16 02:47:06;;;;;;;20.85;6.57;;;;;;;;;;5047360;28;20093;-69
2023/08/16 02:49:31;;;;;;;11.85;7.13;;;;;;;;;;5036472;28;20061;-69
2023/08/16 02:51:58;;;;;;;13.18;7.32;;;;;;;;;;5035426;28;20076;-69
2023/08/16 02:54:24;;;;;;;14.48;6.97;;;;;;;;;;5051974;28;20075;-70
2023/08/16 02:56:49;;;;;;;7.45;6.30;;;;;;;;;;5026359;28;20490;-69
2023/08/16 02:59:14;;;;;;;6.75;6.05;;;;;;;;;;5047346;28;20153;-70
2023/08/16 03:01:41;;;;;;;9.30;6.05;;;;;;;;;;5050047;28;20052;-70
2023/08/16 03:04:06;;;;;;;8.57;5.75;;;;;;;;;;5040639;28;20083;-69
2023/08/16 03:06:32;;;;;;;8.98;5.68;;;;;;;;;;5042706;28;20057;-70
2023/08/16 03:08:57;;;;;;;13.70;5.82;;;;;;;;;;5046830;28;20107;-70
2023/08/16 03:11:23;;;;;;;17.67;6.10;;;;;;;;;;5044355;28;20059;-73
2023/08/16 03:13:48;;;;;;;8.25;6.03;;;;;;;;;;5028781;28;20167;-73
2023/08/16 03:16:13;;;;;;;7.68;5.85;;;;;;;;;;5025289;28;20041;-72
2023/08/16 03:18:40;;;;;;;7.05;5.90;;;;;;;;;;5036930;28;20048;-72
2023/08/16 03:21:07;;;;;;;9.85;6.22;;;;;;;;;;5021731;28;21034;-70
2023/08/16 03:23:34;;;;;;;7.65;6.43;;;;;;;;;;5021270;28;20143;-70
2023/08/16 03:26:01;;;;;;;6.95;5.85;;;;;;;;;;5022259;28;20040;-70
2023/08/16 03:28:26;;;;;;;7.78;5.97;;;;;;;;;;5021547;28;20106;-71
2023/08/16 03:30:52;;;;;;;7.05;5.85;;;;;;;;;;5034192;28;20045;-72
2023/08/16 03:33:18;;;;;;;8.38;5.55;;;;;;;;;;5006644;28;20037;-70
2023/08/16 03:35:44;;;;;;;7.68;5.88;;;;;;;;;;5030250;28;20062;-70
2023/08/16 03:38:09;;;;;;;7.57;5.55;;;;;;;;;;5026730;28;20040;-70
2023/08/16 03:40:34;;;;;;;7.78;6.05;;;;;;;;;;5009754;28;20175;-71
2023/08/16 03:43:00;;;;;;;6.63;5.57;;;;;;;;;;5048507;28;20269;-71
2023/08/16 03:45:26;;;;;;;8.73;5.60;;;;;;;;;;5043418;28;20052;-71
2023/08/16 03:47:56;;;;;;;6.25;5.22;;;;;;;;;;5046165;28;20052;-70
2023/08/16 03:50:22;;;;;;;6.13;5.35;;;;;;;;;;5050485;28;20059;-69
2023/08/16 03:52:47;;;;;;;8.85;6.50;;;;;;;;;;5041293;28;20559;-68
2023/08/16 03:55:13;;;;;;;6.28;5.53;;;;;;;;;;5042334;28;20417;-70
2023/08/16 03:57:39;;;;;;;7.20;5.88;;;;;;;;;;5029161;28;20048;-70
2023/08/16 04:00:10;;;;;;;6.93;5.97;;;;;;;;;;5020726;28;20037;-69
2023/08/16 04:02:39;;;;;;;7.60;6.80;;;;;;;;;;5034488;28;20045;-69
2023/08/16 04:05:10;;;;;;;9.68;7.15;;;;;;;;;;5039845;28;20128;-70
2023/08/16 04:07:36;;;;;;;9.43;7.70;;;;;;;;;;5048732;28;20064;-70
2023/08/16 04:10:02;;;;;;;9.57;7.25;;;;;;;;;;5026574;28;20041;-70
2023/08/16 04:12:27;;;;;;;10.82;7.35;;;;;;;;;;5053633;28;20063;-70
2023/08/16 04:14:53;;;;;;;6.80;6.05;;;;;;;;;;5028811;28;20044;-70
2023/08/16 04:17:18;;;;;;;8.75;6.80;;;;;;;;;;5013935;28;20068;-69
2023/08/16 04:19:44;;;;;;;7.90;6.20;;;;;;;;;;5032273;28;20386;-69
2023/08/16 04:22:09;;;;;;;10.73;6.85;;;;;;;;;;5017629;28;20037;-70
2023/08/16 04:24:34;;;;;;;9.13;6.18;;;;;;;;;;5024857;28;20073;-70
2023/08/16 04:27:00;;;;;;;8.48;6.47;;;;;;;;;;5055130;28;20051;-71
2023/08/16 04:29:25;;;;;;;10.27;6.55;;;;;;;;;;5028120;28;20422;-70
2023/08/16 04:31:51;;;;;;;10.65;5.97;;;;;;;;;;5010326;28;20076;-70
2023/08/16 04:34:16;;;;;;;7.15;5.85;;;;;;;;;;5026340;28;20147;-71
2023/08/16 04:36:42;;;;;;;7.15;5.97;;;;;;;;;;5026565;28;20045;-71
2023/08/16 04:39:09;;;;;;;5.80;5.20;;;;;;;;;;5023159;28;20041;-71
2023/08/16 04:41:35;;;;;;;7.68;5.72;;;;;;;;;;5012972;28;20056;-70
2023/08/16 04:44:00;;;;;;;6.43;5.82;;;;;;;;;;5046039;28;20162;-70
2023/08/16 04:46:28;;;;;;;4.88;4.47;;;;;;;;;;5045980;28;20045;-70
2023/08/16 04:48:54;;;;;;;5.40;4.65;;;;;;;;;;5028962;28;20109;-70
2023/08/16 04:51:20;;;;;;;5.75;4.60;;;;;;;;;;5049864;28;20037;-71
2023/08/16 04:53:46;;;;;;;5.10;4.60;;;;;;;;;;5033854;28;20052;-71
2023/08/16 04:56:12;;;;;;;7.57;5.38;;;;;;;;;;5033293;28;20048;-71
2023/08/16 04:58:38;;;;;;;5.75;5.10;;;;;;;;;;5025798;28;20640;-70
2023/08/16 05:01:04;;;;;;;5.20;4.63;;;;;;;;;;5043637;28;20786;-70
2023/08/16 05:03:32;;;;;;;8.93;5.63;;;;;;;;;;5025086;28;20071;-71
2023/08/16 05:06:02;;;;;;;5.43;4.93;;;;;;;;;;5026172;28;20631;-70
2023/08/16 05:08:29;;;;;;;6.47;5.78;;;;;;;;;;5041971;28;20053;-71
2023/08/16 05:10:56;;;;;;;5.88;5.05;;;;;;;;;;5027975;28;20106;-70
2023/08/16 05:13:22;;;;;;;5.55;5.03;;;;;;;;;;5031164;28;20135;-71
2023/08/16 05:15:48;;;;;;;9.45;5.40;;;;;;;;;;5049520;28;20045;-71
2023/08/16 05:18:13;;;;;;;11.07;7.80;;;;;;;;;;5024849;28;20079;-70
2023/08/16 05:20:42;;;;;;;12.15;8.38;;;;;;;;;;5026339;28;20037;-70
2023/08/16 05:23:08;;;;;;;14.25;7.68;;;;;;;;;;5046057;28;20041;-71
2023/08/16 05:25:36;;;;;;;8.93;5.57;;;;;;;;;;5047559;28;20358;-71
2023/08/16 05:28:01;;;;;;;6.68;4.60;;;;;;;;;;5043688;28;20045;-70
2023/08/16 05:30:27;;;;;;;3.53;3.22;;;;;;;;;;5042224;28;20044;-70
2023/08/16 05:32:55;;;;;;;3.42;3.13;;;;;;;;;;5040217;28;20128;-71
2023/08/16 05:35:20;;;;;;;5.45;3.70;;;;;;;;;;5024228;28;20049;-70
2023/08/16 05:37:46;;;;;;;4.47;3.42;;;;;;;;;;5041910;28;20072;-71
2023/08/16 05:40:12;;;;;;;3.13;2.92;;;;;;;;;;5043072;28;20033;-70
2023/08/16 05:42:40;;;;;;;2.42;2.20;;;;;;;;;;5024373;28;20045;-71
2023/08/16 05:45:06;;;;;;;3.22;2.20;;;;;;;;;;5041403;28;20048;-71
2023/08/16 05:47:32;;;;;;;3.03;2.50;;;;;;;;;;5027036;28;20119;-70
2023/08/16 05:49:59;;;;;;;2.17;2.05;;;;;;;;;;5044473;28;20513;-68
2023/08/16 05:52:25;;;;;;;2.50;2.30;;;;;;;;;;5008018;28;20045;-68
2023/08/16 05:54:50;;;;;;;3.00;2.38;;;;;;;;;;5041164;28;20493;-68
2023/08/16 05:57:16;;;;;;;5.30;2.80;;;;;;;;;;5042454;28;20033;-71
2023/08/16 05:59:41;;;;;;;2.58;2.38;;;;;;;;;;5025415;28;20047;-71
2023/08/16 06:02:07;;;;;;;3.97;2.28;;;;;;;;;;5036908;28;20795;-68
2023/08/16 06:04:33;;;;;;;4.97;2.47;;;;;;;;;;5041911;28;20044;-68
2023/08/16 06:07:00;;;;;;;1.98;1.88;;;;;;;;;;5037766;28;20048;-68
2023/08/16 06:09:25;;;;;;;2.58;2.08;;;;;;;;;;5034480;28;20044;-68
2023/08/16 06:11:51;;;;;;;2.28;2.08;;;;;;;;;;5024316;28;20045;-67
2023/08/16 06:14:16;;;;;;;2.20;2.00;;;;;;;;;;5039544;28;20524;-68
2023/08/16 06:16:41;;;;;;;2.55;1.65;;;;;;;;;;5038303;28;20037;-68
2023/08/16 06:19:08;;;;;;;2.10;1.90;;;;;;;;;;5021145;28;20040;-68
2023/08/16 06:21:34;;;;;;;2.05;1.95;;;;;;;;;;5042961;28;20060;-68
2023/08/16 06:23:59;;;;;;;2.92;1.70;;;;;;;;;;5040187;28;20501;-68
2023/08/16 06:26:25;;;;;;;2.33;1.70;;;;;;;;;;5041062;28;20150;-71
2023/08/16 06:28:51;;;;;;;2.22;1.95;;;;;;;;;;5038651;28;20051;-70
2023/08/16 06:31:17;;;;;;;4.88;2.20;;;;;;;;;;5022226;28;20225;-70
2023/08/16 06:33:43;;;;;;;2.80;2.60;;;;;;;;;;5027652;28;20399;-70
2023/08/16 06:36:09;;;;;;;2.80;2.60;;;;;;;;;;5021800;28;20041;-71
2023/08/16 06:38:34;;;;;;;3.85;2.70;;;;;;;;;;5019918;28;20524;-71
2023/08/16 06:41:00;;;;;;;3.42;2.80;;;;;;;;;;5038434;28;20045;-71
2023/08/16 06:43:25;;;;;;;3.45;2.10;;;;;;;;;;5021504;28;20056;-71
2023/08/16 06:45:51;;;;;;;3.05;1.73;;;;;;;;;;5039240;28;20041;-72
2023/08/16 06:48:16;;;;;;;3.30;2.00;;;;;;;;;;5038136;28;20087;-71
2023/08/16 06:50:42;;;;;;;2.30;2.00;;;;;;;;;;5037026;28;20077;-71
2023/08/16 06:53:08;;;;;;;5.45;1.83;;;;;;;;;;5040893;28;20049;-71
2023/08/16 06:55:35;;;;;;;2.83;2.33;;;;;;;;;;5038400;28;20060;-71
2023/08/16 06:58:05;;;;;;;2.92;1.70;;;;;;;;;;5040735;28;20076;-71
2023/08/16 07:00:30;;;;;;;3.28;2.00;;;;;;;;;;5038338;28;20414;-71
2023/08/16 07:02:56;;;;;;;2.05;1.85;;;;;;;;;;5037446;28;20044;-71
2023/08/16 07:05:25;;;;;;;2.13;1.92;;;;;;;;;;5041826;28;20049;-71
2023/08/16 07:07:50;;;;;;;3.08;2.20;;;;;;;;;;5045072;28;20072;-71
2023/08/16 07:10:16;;;;;;;2.42;2.22;;;;;;;;;;5042886;28;20182;-72
2023/08/16 07:12:44;;;;;;;2.70;2.20;;;;;;;;;;5037955;28;20105;-69
2023/08/16 07:15:11;;;;;;;2.80;2.13;;;;;;;;;;5020185;28;20041;-70
2023/08/16 07:17:36;;;;;;;4.57;1.98;;;;;;;;;;5039129;28;20074;-70
2023/08/16 07:20:02;;;;;;;2.58;2.10;;;;;;;;;;5040997;28;20044;-70
2023/08/16 07:22:28;;;;;;;2.45;2.25;;;;;;;;;;5039187;28;20053;-70
2023/08/16 07:24:54;;;;;;;4.70;2.28;;;;;;;;;;5041210;28;20051;-70
2023/08/16 07:27:20;;;;;;;2.00;1.90;;;;;;;;;;5042682;28;20041;-70
2023/08/16 07:29:46;;;;;;;2.05;1.88;;;;;;;;;;5026951;28;20044;-70
2023/08/16 07:32:11;;;;;;;4.28;1.90;;;;;;;;;;5038055;28;20048;-71
2023/08/16 07:34:36;;;;;;;4.80;2.30;;;;;;;;;;5039149;28;20052;-71
2023/08/16 07:37:03;;;;;;;2.05;1.95;;;;;;;;;;5040004;28;20037;-71
2023/08/16 07:39:31;;;;;;;2.08;1.98;;;;;;;;;;5019718;28;20067;-72
2023/08/16 07:41:56;;;;;;;2.40;1.92;;;;;;;;;;5037507;28;20049;-72
2023/08/16 07:44:22;;;;;;;2.47;2.13;;;;;;;;;;5019405;28;20584;-72
2023/08/16 07:46:47;;;;;;;5.25;1.90;;;;;;;;;;5038425;28;20040;-73
2023/08/16 07:49:13;;;;;;;6.55;2.22;;;;;;;;;;5037702;28;20163;-71
2023/08/16 07:51:38;;;;;;;2.08;1.88;;;;;;;;;;5019471;28;20049;-72
2023/08/16 07:54:04;;;;;;;1.98;1.70;;;;;;;;;;5020473;28;20037;-72
2023/08/16 07:56:30;;;;;;;2.53;1.92;;;;;;;;;;5038443;28;20089;-72
2023/08/16 07:58:55;;;;;;;3.67;1.92;;;;;;;;;;5038124;28;20047;-72
2023/08/16 08:01:20;;;;;;;2.40;2.20;;;;;;;;;;5038085;28;20048;-73
2023/08/16 08:03:46;;;;;;;1.80;1.70;;;;;;;;;;5044059;28;20044;-72
2023/08/16 08:06:12;;;;;;;2.40;2.20;;;;;;;;;;5029185;28;20045;-74
2023/08/16 08:08:37;;;;;;;2.22;2.03;;;;;;;;;;5043837;28;20044;-73
2023/08/16 08:11:07;;;;;;;2.08;1.92;;;;;;;;;;5029615;28;20057;-71
2023/08/16 08:13:32;;;;;;;2.42;2.13;;;;;;;;;;5052477;28;21141;-71
2023/08/16 08:15:58;;;;;;;2.55;2.15;;;;;;;;;;5052639;28;20131;-73
2023/08/16 08:18:23;;;;;;;5.13;2.20;;;;;;;;;;5032473;28;20049;-72
2023/08/16 08:20:49;;;;;;;2.45;2.25;;;;;;;;;;5046839;28;20432;-72
2023/08/16 08:23:15;;;;;;;2.28;2.08;;;;;;;;;;5052206;28;20045;-72
2023/08/16 08:25:42;;;;;;;2.50;1.70;;;;;;;;;;5055347;28;20033;-73
2023/08/16 08:28:08;;;;;;;3.25;2.33;;;;;;;;;;5054781;28;20199;-74
2023/08/16 08:30:34;;;;;;;3.03;2.28;;;;;;;;;;5020919;28;20571;-73
2023/08/16 08:33:00;;;;;;;2.22;2.00;;;;;;;;;;5036862;28;20048;-74
2023/08/16 08:35:26;;;;;;;2.45;2.25;;;;;;;;;;5030611;28;20055;-72
2023/08/16 08:37:51;;;;;;;4.43;2.58;;;;;;;;;;5049602;28;20052;-72
2023/08/16 08:40:18;;;;;;;4.95;2.50;;;;;;;;;;5049417;28;20073;-69
2023/08/16 08:42:49;;;;;;;6.28;2.50;;;;;;;;;;5027298;28;20141;-69
2023/08/16 08:45:15;;;;;;;5.85;2.50;;;;;;;;;;5027305;28;20052;-70
2023/08/16 08:47:43;;;;;;;2.58;2.38;;;;;;;;;;5045086;28;20044;-71
2023/08/16 08:50:09;;;;;;;8.30;2.45;;;;;;;;;;5046722;28;20425;-70
2023/08/16 08:52:35;;;;;;;2.00;1.90;;;;;;;;;;5020761;28;20063;-71
2023/08/16 08:55:02;;;;;;;2.20;2.10;;;;;;;;;;5045508;28;20033;-70
2023/08/16 08:57:29;;;;;;;2.50;2.30;;;;;;;;;;5042078;28;20074;-70
2023/08/16 08:59:58;;;;;;;2.70;2.50;;;;;;;;;;5047108;28;20055;-71
2023/08/16 09:02:24;;;;;;;2.03;1.92;;;;;;;;;;5042469;28;20131;-70
2023/08/16 09:04:52;;;;;;;3.00;2.05;;;;;;;;;;5042297;28;20494;-70
2023/08/16 09:07:21;;;;;;;3.83;1.77;;;;;;;;;;5023373;28;20170;-71
2023/08/16 09:09:48;;;;;;;2.20;1.90;;;;;;;;;;5051432;28;20524;-72
2023/08/16 09:12:22;;;;;;;2.00;1.90;;;;;;;;;;5007898;28;20130;-71
2023/08/16 09:14:48;;;;;;;3.97;1.75;;;;;;;;;;5043755;28;20402;-71
2023/08/16 09:17:13;;;;;;;2.15;1.95;;;;;;;;;;5043969;28;20106;-72
2023/08/16 09:19:45;;;;;;;2.20;1.98;;;;;;;;;;5042079;28;20476;-72
2023/08/16 09:22:32;;;;;;;1.92;1.60;;;;;;;;;;5047678;28;20053;-72
2023/08/16 09:24:58;;;;;;;3.00;1.90;;;;;;;;;;5025863;28;20060;-71
2023/08/16 09:27:26;;;;;;;1.85;1.63;;;;;;;;;;5065655;28;20045;-71
2023/08/16 09:29:57;;;;;;;2.33;1.83;;;;;;;;;;5060977;28;20064;-70
2023/08/16 09:32:26;;;;;;;;;;;;;;;;;;5031959;28;20056;-71
2023/08/16 09:34:53;;;;;;;1.98;1.83;;;;;;;;;;5029553;28;19928;-71
2023/08/16 09:37:19;;;;;;;2.30;2.10;;;;;;;;;;5038244;28;20049;-72
2023/08/16 09:39:54;;;;;;;2.60;1.90;;;;;;;;;;5029617;28;20043;-71
2023/08/16 09:42:20;;;;;;;1.95;1.75;;;;;;;;;;5029051;28;20057;-71
2023/08/16 09:44:47;;;;;;;2.17;2.03;;;;;;;;;;5050259;28;20053;-71
2023/08/16 09:47:13;;;;;;;2.00;1.80;;;;;;;;;;5055008;28;20063;-71
2023/08/16 09:49:39;;;;;;;3.78;2.10;;;;;;;;;;5047691;28;20061;-71
2023/08/16 09:52:10;;;;;;;2.65;1.92;;;;;;;;;;5046561;28;20514;-71
2023/08/16 09:54:36;;;;;;;2.20;2.00;;;;;;;;;;5041402;28;20418;-71
2023/08/16 09:57:03;;;;;;;1.73;1.63;;;;;;;;;;5040199;28;20497;-71
2023/08/16 09:59:30;;;;;;;1.50;1.40;;;;;;;;;;5044927;28;20044;-71
2023/08/16 10:01:57;;;;;;;1.35;1.30;;;;;;;;;;5042172;28;20041;-71
2023/08/16 10:04:24;;;;;;;2.88;1.48;;;;;;;;;;5043062;28;20045;-71
2023/08/16 10:06:50;;;;;;;1.27;1.20;;;;;;;;;;5043636;28;20077;-72
2023/08/16 10:09:16;;;;;;;1.27;1.17;;;;;;;;;;5042034;28;20161;-71
2023/08/16 10:11:43;;;;;;;2.08;1.35;;;;;;;;;;5027570;28;20045;-71
2023/08/16 10:14:09;;;;;;;1.20;1.10;;;;;;;;;;5024143;28;20047;-71
2023/08/16 10:16:35;;;;;;;1.73;1.20;;;;;;;;;;5025651;28;20044;-71
2023/08/16 10:19:02;;;;;;;1.73;1.27;;;;;;;;;;5044522;28;20080;-71
2023/08/16 10:21:29;;;;;;;1.20;1.10;;;;;;;;;;5044380;28;20134;-70
2023/08/16 10:23:56;;;;;;;1.35;1.25;;;;;;;;;;5026447;28;20094;-71
2023/08/16 10:26:23;;;;;;;3.53;1.20;;;;;;;;;;5041017;28;20186;-71
2023/08/16 10:28:52;;;;;;;1.30;1.17;;;;;;;;;;5045919;28;20072;-70
2023/08/16 10:31:22;;;;;;;1.63;1.30;;;;;;;;;;5042492;28;20534;-71
2023/08/16 10:33:50;;;;;;;1.50;1.20;;;;;;;;;;5041213;28;20079;-70
2023/08/16 10:36:16;;;;;;;1.40;1.30;;;;;;;;;;5041274;28;20076;-71
2023/08/16 10:38:42;;;;;;;1.52;1.15;;;;;;;;;;5037773;28;20148;-70
2023/08/16 10:41:12;;;;;;;1.83;1.65;;;;;;;;;;5039528;28;20132;-70
2023/08/16 10:43:38;;;;;;;4.20;2.38;;;;;;;;;;5041585;28;20551;-70
2023/08/16 10:46:04;;;;;;;1.52;1.42;;;;;;;;;;5039663;28;20044;-71
2023/08/16 10:48:35;;;;;;;1.50;1.40;;;;;;;;;;5042193;28;20041;-71
2023/08/16 10:51:06;;;;;;;2.40;1.40;;;;;;;;;;5048818;28;20430;-70
2023/08/16 10:53:33;;;;;;;2.55;1.55;;;;;;;;;;5041640;28;20041;-71
2023/08/16 10:56:03;;;;;;;2.22;1.60;;;;;;;;;;5040336;28;20127;-70
2023/08/16 10:58:29;;;;;;;1.52;1.42;;;;;;;;;;5040375;28;20040;-70
2023/08/16 11:00:57;;;;;;;1.70;1.60;;;;;;;;;;5040015;28;20033;-71
2023/08/16 11:03:37;;;;;;;1.50;1.30;;;;;;;;;;5040296;28;20045;-71
2023/08/16 11:06:12;;;;;;;1.40;1.30;;;;;;;;;;5042205;28;20094;-70
2023/08/16 11:08:42;;;;;;;1.88;1.58;;;;;;;;;;5041690;28;20475;-71
2023/08/16 11:11:08;;;;;;;4.03;1.60;;;;;;;;;;5040289;28;20051;-71
2023/08/16 11:13:34;;;;;;;1.25;1.20;;;;;;;;;;5039578;28;20058;-72
2023/08/16 11:16:00;;;;;;;1.35;1.30;;;;;;;;;;5039575;28;20052;-71
2023/08/16 11:18:32;;;;;;;1.40;1.30;;;;;;;;;;5045878;28;20059;-70
2023/08/16 11:20:59;;;;;;;1.52;1.42;;;;;;;;;;5019110;28;20490;-73
2023/08/16 11:23:39;;;;;;;1.58;1.48;;;;;;;;;;5026476;28;20045;-71
2023/08/16 11:26:06;;;;;;;1.13;1.13;;;;;;;;;;5045828;28;20091;-71
2023/08/16 11:28:33;;;;;;;1.08;0.98;;;;;;;;;;5044693;28;20060;-71
2023/08/16 11:31:03;;;;;;;1.10;1.10;;;;;;;;;;5041230;28;20161;-69
2023/08/16 11:33:38;;;;;;;1.27;1.15;;;;;;;;;;5044070;28;20048;-71
2023/08/16 11:36:05;;;;;;;1.33;1.20;;;;;;;;;;5041758;28;20064;-71
2023/08/16 11:38:33;;;;;;;1.98;1.48;;;;;;;;;;5030615;28;20058;-72
2023/08/16 11:40:59;;;;;;;1.10;1.10;;;;;;;;;;5048118;28;20045;-71
2023/08/16 11:43:26;;;;;;;1.73;1.50;;;;;;;;;;5054265;28;20071;-71
2023/08/16 11:45:52;;;;;;;1.42;1.20;;;;;;;;;;5022775;28;20044;-70
2023/08/16 11:48:18;;;;;;;1.35;1.25;;;;;;;;;;5039366;28;20051;-70
2023/08/16 11:50:44;;;;;;;1.35;1.25;;;;;;;;;;5049311;28;20152;-72
2023/08/16 11:53:09;;;;;;;1.30;1.20;;;;;;;;;;5008597;28;20147;-72
2023/08/16 11:55:35;;;;;;;1.42;1.33;;;;;;;;;;5039263;28;20375;-71
2023/08/16 11:58:03;;;;;;;2.22;1.58;;;;;;;;;;5046471;28;20045;-70
2023/08/16 12:00:29;;;;;;;1.52;1.42;;;;;;;;;;5038911;28;20063;-70
2023/08/16 12:03:01;;;;;;;1.88;1.40;;;;;;;;;;5022771;28;20799;-71
2023/08/16 12:05:33;;;;;;;1.50;1.40;;;;;;;;;;5048120;28;20044;-71
2023/08/16 12:08:03;;;;;;;1.40;1.30;;;;;;;;;;5053891;28;20044;-70
2023/08/16 12:10:32;;;;;;;1.40;1.30;;;;;;;;;;5049156;28;20037;-70
2023/08/16 12:12:58;;;;;;;1.77;1.30;;;;;;;;;;5043196;28;20110;-70
2023/08/16 12:15:25;;;;;;;1.48;1.30;;;;;;;;;;5043651;28;20090;-71
2023/08/16 12:17:52;;;;;;;1.50;1.40;;;;;;;;;;5040177;28;20072;-71
2023/08/16 12:20:18;;;;;;;3.03;1.20;;;;;;;;;;5040682;28;20424;-71
2023/08/16 12:22:44;;;;;;;3.20;1.30;;;;;;;;;;5038296;28;20045;-71
2023/08/16 12:25:10;;;;;;;6.88;1.80;;;;;;;;;;5021400;28;20866;-70
2023/08/16 12:27:35;;;;;;;1.80;1.50;;;;;;;;;;5039147;28;20063;-70
2023/08/16 12:30:01;;;;;;;1.50;1.40;;;;;;;;;;5039198;28;20045;-69
2023/08/16 12:32:26;;;;;;;1.63;1.52;;;;;;;;;;5040721;28;20045;-70
2023/08/16 12:34:51;;;;;;;2.65;1.40;;;;;;;;;;5019419;28;20555;-71
2023/08/16 12:37:17;;;;;;;1.40;1.30;;;;;;;;;;5038829;28;20049;-69
2023/08/16 12:39:42;;;;;;;1.33;1.23;;;;;;;;;;5025483;28;20044;-72
2023/08/16 12:42:08;;;;;;;1.70;1.50;;;;;;;;;;5041290;28;20577;-70
2023/08/16 12:44:33;;;;;;;1.40;1.30;;;;;;;;;;5038367;28;20044;-69
2023/08/16 12:46:58;;;;;;;1.90;1.50;;;;;;;;;;5039818;28;20048;-69
2023/08/16 12:49:24;;;;;;;1.50;1.40;;;;;;;;;;5038910;28;20033;-69
2023/08/16 12:51:49;;;;;;;2.45;1.63;;;;;;;;;;5038447;28;20429;-70
2023/08/16 12:54:15;;;;;;;2.17;1.50;;;;;;;;;;5019949;28;20527;-72
2023/08/16 12:56:40;;;;;;;1.63;1.52;;;;;;;;;;5037839;28;20049;-69
2023/08/16 12:59:05;;;;;;;1.48;1.38;;;;;;;;;;5043519;28;20476;-70
2023/08/16 13:01:31;;;;;;;1.73;1.58;;;;;;;;;;5039648;28;20048;-70
2023/08/16 13:03:57;;;;;;;1.73;1.50;;;;;;;;;;5040575;28;20045;-69
2023/08/16 13:06:24;;;;;;;1.40;1.30;;;;;;;;;;5038572;28;20045;-71
2023/08/16 13:08:49;;;;;;;1.50;1.40;;;;;;;;;;5040309;28;20443;-70
2023/08/16 13:11:15;;;;;;;1.65;1.50;;;;;;;;;;5042652;28;20053;-70
2023/08/16 13:13:40;;;;;;;3.15;1.92;;;;;;;;;;5042351;28;20063;-69
2023/08/16 13:16:07;;;;;;;1.73;1.48;;;;;;;;;;5041830;28;20114;-70
2023/08/16 13:18:33;;;;;;;1.50;1.40;;;;;;;;;;5041979;28;20569;-69
2023/08/16 13:20:59;;;;;;;1.70;1.60;;;;;;;;;;5044772;28;20099;-70
2023/08/16 13:23:26;;;;;;;2.60;1.50;;;;;;;;;;5044990;28;20506;-69
2023/08/16 13:25:51;;;;;;;2.42;2.08;;;;;;;;;;5041915;28;20045;-69
2023/08/16 13:28:17;;;;;;;1.35;1.25;;;;;;;;;;5024537;28;20056;-69
2023/08/16 13:30:44;;;;;;;1.75;1.30;;;;;;;;;;5043973;28;20056;-70
2023/08/16 13:33:09;;;;;;;1.77;1.67;;;;;;;;;;5043124;28;20083;-68
2023/08/16 13:35:41;;;;;;;1.88;1.45;;;;;;;;;;5042001;28;20119;-69
2023/08/16 13:38:06;;;;;;;2.90;1.67;;;;;;;;;;5043732;28;20052;-69
2023/08/16 13:40:31;;;;;;;1.95;1.80;;;;;;;;;;5041523;28;20041;-69
2023/08/16 13:42:57;;;;;;;1.67;1.58;;;;;;;;;;5041607;28;20486;-69
2023/08/16 13:45:22;;;;;;;1.50;1.40;;;;;;;;;;5041809;28;20074;-68
2023/08/16 13:47:48;;;;;;;1.80;1.70;;;;;;;;;;5041235;28;20041;-67
2023/08/16 13:50:13;;;;;;;1.70;1.60;;;;;;;;;;5041061;28;20037;-68
2023/08/16 13:52:39;;;;;;;1.70;1.60;;;;;;;;;;5040794;28;20052;-69
2023/08/16 13:55:05;;;;;;;1.88;1.77;;;;;;;;;;5041914;28;20045;-69
2023/08/16 13:57:30;;;;;;;1.50;1.40;;;;;;;;;;5041705;28;20045;-71
2023/08/16 13:59:56;;;;;;;1.98;1.77;;;;;;;;;;5049633;28;20045;-68
2023/08/16 14:02:21;;;;;;;1.85;1.60;;;;;;;;;;5049442;28;20068;-69
2023/08/16 14:04:47;;;;;;;1.50;1.40;;;;;;;;;;5040850;28;20056;-69
2023/08/16 14:07:12;;;;;;;1.77;1.67;;;;;;;;;;5042497;28;20045;-69
2023/08/16 14:09:37;;;;;;;2.08;1.70;;;;;;;;;;5041267;28;20040;-69
2023/08/16 14:12:03;;;;;;;2.17;1.73;;;;;;;;;;5041163;28;20103;-68
2023/08/16 14:14:28;;;;;;;1.77;1.67;;;;;;;;;;5041589;28;20048;-68
2023/08/16 14:16:54;;;;;;;6.10;1.70;;;;;;;;;;5042460;28;20067;-69
2023/08/16 14:19:19;;;;;;;1.83;1.73;;;;;;;;;;5023371;28;20037;-67
2023/08/16 14:21:45;;;;;;;2.20;1.85;;;;;;;;;;5040448;28;20675;-68
2023/08/16 14:24:10;;;;;;;1.95;1.73;;;;;;;;;;5041593;28;20461;-68
2023/08/16 14:26:35;;;;;;;3.03;1.90;;;;;;;;;;5040017;28;20053;-68
2023/08/16 14:29:03;;;;;;;1.75;1.65;;;;;;;;;;5041356;28;20051;-68
2023/08/16 14:31:28;;;;;;;3.22;1.90;;;;;;;;;;5039776;28;20053;-68
2023/08/16 14:33:54;;;;;;;2.30;1.92;;;;;;;;;;5040982;28;20060;-70
2023/08/16 14:36:19;;;;;;;2.50;1.55;;;;;;;;;;5041630;28;20127;-68
2023/08/16 14:38:45;;;;;;;1.95;1.80;;;;;;;;;;5040186;28;20056;-68